createdAt,value
2019-01-11T00:06:01.435Z,1017.9
2019-01-11T00:16:16.602Z,1017.8
2019-01-11T00:26:30.906Z,1017.7
2019-01-11T00:36:44.749Z,1017.6
2019-01-11T00:47:00.016Z,1017.5
2019-01-11T00:57:13.930Z,1017.4
2019-01-11T01:07:27.841Z,1017.4
2019-01-11T01:17:43.030Z,1017.3
2019-01-11T01:27:57.408Z,1017.2
2019-01-11T01:38:11.635Z,1017.2
2019-01-11T01:48:26.007Z,1017
2019-01-11T01:58:40.286Z,1016.9
2019-01-11T02:08:54.171Z,1016.8
2019-01-11T02:19:08.444Z,1016.7
2019-01-11T02:29:22.521Z,1016.6
2019-01-11T02:39:37.833Z,1016.6
2019-01-11T02:49:51.848Z,1016.6
2019-01-11T03:00:06.919Z,1016.5
2019-01-11T03:10:21.550Z,1016.2
2019-01-11T03:20:35.244Z,1016.1
2019-01-11T03:30:49.174Z,1016.1
2019-01-11T03:41:04.536Z,1016.1
2019-01-11T03:51:18.519Z,1016
2019-01-11T04:01:33.488Z,1015.9
2019-01-11T04:11:47.537Z,1015.9
2019-01-11T04:22:02.853Z,1015.9
2019-01-11T04:32:17.138Z,1015.7
2019-01-11T04:42:30.969Z,1015.8
2019-01-11T04:52:45.608Z,1015.7
2019-01-11T05:03:00.667Z,1015.7
2019-01-11T05:13:16.321Z,1015.5
2019-01-11T05:23:30.760Z,1015.6
2019-01-11T05:33:44.995Z,1015.4
2019-01-11T05:43:59.158Z,1015.3
2019-01-11T05:54:13.367Z,1015.3
2019-01-11T06:04:27.703Z,1015.3
2019-01-11T06:14:41.971Z,1015.4
2019-01-11T06:24:55.827Z,1015.4
2019-01-11T06:35:10.084Z,1015.4
2019-01-11T06:45:23.735Z,1015.2
2019-01-11T06:55:39.193Z,1015.2
2019-01-11T07:05:52.851Z,1015.5
2019-01-11T07:16:06.663Z,1015.5
2019-01-11T07:26:22.105Z,1015.4
2019-01-11T07:36:37.056Z,1015.4
2019-01-11T07:46:52.163Z,1015.4
2019-01-11T07:57:05.794Z,1015.5
2019-01-11T08:07:19.598Z,1015.4
2019-01-11T08:17:35.258Z,1015.5
2019-01-11T08:27:48.971Z,1015.5
2019-01-11T08:38:04.304Z,1015.6
2019-01-11T08:48:19.769Z,1015.5
2019-01-11T08:58:34.009Z,1015.5
2019-01-11T09:08:49.087Z,1015.3
2019-01-11T09:19:03.332Z,1015.2
2019-01-11T09:29:18.342Z,1015.3
2019-01-11T09:39:33.870Z,1015.3
2019-01-11T09:49:49.369Z,1015.4
2019-01-11T10:00:04.640Z,1015.4
2019-01-11T10:10:19.364Z,1015.4
2019-01-11T10:20:34.031Z,1015.3
2019-01-11T10:30:49.016Z,1015.2
2019-01-11T10:41:03.752Z,1015.2
2019-01-11T10:51:19.474Z,1015.3
2019-01-11T11:01:34.021Z,1015.1
2019-01-11T11:11:47.791Z,1015
2019-01-11T11:22:01.789Z,1014.9
2019-01-11T11:32:16.987Z,1014.8
2019-01-11T11:42:31.732Z,1014.7
2019-01-11T11:52:45.758Z,1014.5
2019-01-11T12:02:59.443Z,1014.4
2019-01-11T12:13:13.708Z,1014.3
2019-01-11T12:23:27.984Z,1014.2
2019-01-11T12:33:42.209Z,1014.1
2019-01-11T12:43:55.961Z,1014.1
2019-01-11T12:54:11.140Z,1014
2019-01-11T13:04:24.877Z,1013.9
2019-01-11T13:14:39.588Z,1013.8
2019-01-11T13:24:54.416Z,1013.7
2019-01-11T13:35:09.013Z,1013.7
2019-01-11T13:45:23.800Z,1013.5
2019-01-11T13:55:39.487Z,1013.6
2019-01-11T14:05:54.945Z,1013.6
2019-01-11T14:16:08.963Z,1013.6
2019-01-11T14:26:22.816Z,1013.8
2019-01-11T14:36:37.267Z,1013.7
2019-01-11T14:46:52.437Z,1013.7
2019-01-11T14:57:07.208Z,1013.6
2019-01-11T15:07:22.475Z,1013.6
2019-01-11T15:17:36.239Z,1013.6
2019-01-11T15:27:51.830Z,1013.5
2019-01-11T15:38:06.324Z,1013.6
2019-01-11T15:48:20.655Z,1013.5
2019-01-11T15:58:34.879Z,1013.5
2019-01-11T16:08:50.319Z,1013.7
2019-01-11T16:19:04.564Z,1013.6
2019-01-11T16:29:19.921Z,1013.7
2019-01-11T16:39:35.200Z,1013.6
2019-01-11T16:49:49.588Z,1013.8
2019-01-11T17:00:03.563Z,1013.7
2019-01-11T17:10:18.836Z,1013.8
2019-01-11T17:20:33.375Z,1013.7
2019-01-11T17:30:47.912Z,1013.9
2019-01-11T17:41:03.165Z,1013.9
2019-01-11T17:51:18.110Z,1014
2019-01-11T18:01:31.836Z,1014.1
2019-01-11T18:11:46.284Z,1014.1
2019-01-11T18:22:00.655Z,1014.2
2019-01-11T18:32:15.079Z,1014.2
2019-01-11T18:42:28.884Z,1014.3
2019-01-11T18:52:43.183Z,1014.5
2019-01-11T19:02:57.833Z,1014.5
2019-01-11T19:13:12.838Z,1014.5
2019-01-11T19:23:27.630Z,1014.5
2019-01-11T19:33:41.464Z,1014.5
2019-01-11T19:43:55.500Z,1014.5
2019-01-11T19:54:11.123Z,1014.5
2019-01-11T20:04:25.870Z,1014.5
2019-01-11T20:14:40.183Z,1014.5
2019-01-11T20:24:54.726Z,1014.5
2019-01-11T20:35:09.437Z,1014.5
2019-01-11T20:45:24.734Z,1014.6
2019-01-11T20:55:39.926Z,1014.5
2019-01-11T21:05:55.020Z,1014.6
2019-01-11T21:16:09.275Z,1014.7
2019-01-11T21:26:23.238Z,1014.6
2019-01-11T21:36:38.160Z,1014.6
2019-01-11T21:46:52.455Z,1014.7
2019-01-11T21:57:08.128Z,1014.7
2019-01-11T22:07:22.447Z,1014.7
2019-01-11T22:17:37.937Z,1014.7
2019-01-11T22:27:51.995Z,1014.6
2019-01-11T22:38:06.981Z,1014.7
2019-01-11T22:48:21.877Z,1014.7
2019-01-11T22:58:36.346Z,1014.8
2019-01-11T23:08:50.398Z,1014.8
2019-01-11T23:19:04.781Z,1014.8
2019-01-11T23:29:18.955Z,1014.7
2019-01-11T23:39:33.499Z,1014.9
2019-01-11T23:49:48.534Z,1014.8
